Time;durP1;ratioP1;P1;durP2;ratioP2;P2;SDS_P1;SDS_P2;PMS_P1;PMS_P2;Temp;Humidity;BMP_temperature;BMP_pressure;BME280_temperature;BME280_humidity;BME280_pressure;Samples;Min_cycle;Max_cycle;Signal;HPM_P1;HPM_P2
2022/04/28 00:01:11;;;;;;;8.27;4.88;;;;;;;;;;5055001;28;20052;-71
2022/04/28 00:03:37;;;;;;;6.93;3.92;;;;;;;;;;5057044;28;20473;-71
2022/04/28 00:06:03;;;;;;;6.93;4.63;;;;;;;;;;5053069;28;20063;-72
2022/04/28 00:08:29;;;;;;;6.47;4.32;;;;;;;;;;5055888;28;20040;-71
2022/04/28 00:10:55;;;;;;;8.65;4.07;;;;;;;;;;5055185;28;20063;-74
2022/04/28 00:13:21;;;;;;;7.15;4.65;;;;;;;;;;5059702;28;20085;-74
2022/04/28 00:15:47;;;;;;;13.27;5.40;;;;;;;;;;5050999;28;20035;-74
2022/04/28 00:18:13;;;;;;;6.72;4.22;;;;;;;;;;5067456;28;20345;-74
2022/04/28 00:20:39;;;;;;;6.97;4.32;;;;;;;;;;5053024;28;20033;-71
2022/04/28 00:23:05;;;;;;;7.70;4.65;;;;;;;;;;5050356;28;20071;-72
2022/04/28 00:25:32;;;;;;;11.27;4.80;;;;;;;;;;5051354;28;20031;-73
2022/04/28 00:27:58;;;;;;;8.13;4.40;;;;;;;;;;5063043;28;20096;-73
2022/04/28 00:30:24;;;;;;;9.13;5.22;;;;;;;;;;5050324;28;20035;-72
2022/04/28 00:32:50;;;;;;;10.07;4.90;;;;;;;;;;5056918;28;20025;-72
2022/04/28 00:35:16;;;;;;;13.18;5.28;;;;;;;;;;5054360;28;20032;-71
2022/04/28 00:37:43;;;;;;;9.38;5.00;;;;;;;;;;5058644;28;20029;-75
2022/04/28 00:40:09;;;;;;;10.75;4.40;;;;;;;;;;5053120;28;20402;-74
2022/04/28 00:42:36;;;;;;;5.63;4.53;;;;;;;;;;5073382;28;20092;-75
2022/04/28 00:45:02;;;;;;;7.22;5.13;;;;;;;;;;5055593;28;20549;-72
2022/04/28 00:50:38;;;;;;;12.73;4.88;;;;;;;;;;5067783;28;20033;-72
2022/04/28 00:52:59;;;;;;;9.85;4.80;;;;;;;;;;5046559;28;19982;-74
2022/04/28 00:55:25;;;;;;;6.13;4.45;;;;;;;;;;5062495;28;20089;-72
2022/04/28 00:57:51;;;;;;;6.78;5.32;;;;;;;;;;5062013;28;20117;-73
2022/04/28 01:00:17;;;;;;;8.63;4.72;;;;;;;;;;5054051;28;20040;-73
2022/04/28 01:02:43;;;;;;;7.80;4.20;;;;;;;;;;5058951;28;20033;-72
2022/04/28 01:05:10;;;;;;;7.50;5.03;;;;;;;;;;5047747;28;20516;-73
2022/04/28 01:07:45;;;;;;;8.88;4.85;;;;;;;;;;5067961;28;20033;-72
2022/04/28 01:10:12;;;;;;;6.82;4.68;;;;;;;;;;5061565;28;20041;-73
2022/04/28 01:12:38;;;;;;;7.45;4.65;;;;;;;;;;5056626;28;20079;-73
2022/04/28 01:15:05;;;;;;;6.85;4.75;;;;;;;;;;5068719;28;20071;-72
2022/04/28 01:17:31;;;;;;;6.80;4.43;;;;;;;;;;5053556;28;20082;-72
2022/04/28 01:19:57;;;;;;;8.27;4.60;;;;;;;;;;5058250;28;20507;-72
2022/04/28 01:22:26;;;;;;;6.30;4.70;;;;;;;;;;5061221;28;20090;-71
2022/04/28 01:24:52;;;;;;;8.75;4.40;;;;;;;;;;5060561;28;20103;-74
2022/04/28 01:27:19;;;;;;;7.50;4.63;;;;;;;;;;5051027;28;20443;-71
2022/04/28 01:29:45;;;;;;;6.97;4.57;;;;;;;;;;5062677;28;20029;-74
2022/04/28 01:32:11;;;;;;;8.57;5.00;;;;;;;;;;5050739;28;20032;-72
2022/04/28 01:34:37;;;;;;;5.55;4.05;;;;;;;;;;5047716;28;20541;-73
2022/04/28 01:37:04;;;;;;;8.82;4.80;;;;;;;;;;5051690;28;20425;-74
2022/04/28 01:39:30;;;;;;;8.80;4.72;;;;;;;;;;5057175;28;20029;-73
2022/04/28 01:41:56;;;;;;;6.13;4.35;;;;;;;;;;5054976;28;20119;-72
2022/04/28 01:44:22;;;;;;;9.65;5.38;;;;;;;;;;5054612;28;20037;-75
2022/04/28 01:46:48;;;;;;;8.63;4.70;;;;;;;;;;5052847;28;20112;-74
2022/04/28 01:49:14;;;;;;;11.45;5.05;;;;;;;;;;5054059;28;20028;-72
2022/04/28 01:57:10;;;;;;;10.73;5.28;;;;;;;;;;5044384;28;20044;-71
2022/04/28 01:59:36;;;;;;;9.90;5.25;;;;;;;;;;5061230;28;20064;-74
2022/04/28 02:02:02;;;;;;;9.70;4.82;;;;;;;;;;5051788;28;20037;-72
2022/04/28 02:04:28;;;;;;;9.10;4.78;;;;;;;;;;5053352;28;20025;-72
2022/04/28 02:06:54;;;;;;;11.00;6.15;;;;;;;;;;5047140;28;20064;-74
2022/04/28 02:09:20;;;;;;;9.75;5.72;;;;;;;;;;5048627;28;20036;-73
2022/04/28 02:11:47;;;;;;;8.02;4.97;;;;;;;;;;5053274;28;20409;-70
2022/04/28 02:14:13;;;;;;;8.88;5.05;;;;;;;;;;5059136;28;20279;-73
2022/04/28 02:16:39;;;;;;;12.95;5.13;;;;;;;;;;5046960;28;20112;-75
2022/04/28 02:19:05;;;;;;;9.45;5.07;;;;;;;;;;5051878;28;20032;-72
2022/04/28 02:21:31;;;;;;;12.82;5.40;;;;;;;;;;5039261;28;20021;-73
2022/04/28 02:23:57;;;;;;;9.98;5.28;;;;;;;;;;5054472;28;20048;-73
2022/04/28 02:26:23;;;;;;;8.90;4.63;;;;;;;;;;5050900;28;20032;-73
2022/04/28 02:28:49;;;;;;;9.57;5.07;;;;;;;;;;5050446;28;20096;-74
2022/04/28 02:31:15;;;;;;;10.23;5.57;;;;;;;;;;5058446;28;20077;-74
2022/04/28 02:33:41;;;;;;;8.02;5.18;;;;;;;;;;5056689;28;20117;-73
2022/04/28 02:36:07;;;;;;;9.73;5.15;;;;;;;;;;5055328;28;20150;-74
2022/04/28 02:38:33;;;;;;;8.98;5.25;;;;;;;;;;5063220;28;20037;-74
2022/04/28 02:40:59;;;;;;;9.57;5.75;;;;;;;;;;5064547;28;20051;-74
2022/04/28 02:43:26;;;;;;;6.90;4.93;;;;;;;;;;5055038;28;20036;-73
2022/04/28 02:45:52;;;;;;;8.57;5.20;;;;;;;;;;5060823;28;20227;-74
2022/04/28 02:48:18;;;;;;;8.23;5.70;;;;;;;;;;5059212;28;20033;-73
2022/04/28 02:50:44;;;;;;;11.80;5.35;;;;;;;;;;5055385;28;20021;-71
2022/04/28 02:53:10;;;;;;;11.23;7.57;;;;;;;;;;5062437;28;20032;-71
2022/04/28 02:55:36;;;;;;;9.40;5.75;;;;;;;;;;5060956;28;20029;-71
2022/04/28 02:58:02;;;;;;;7.90;5.50;;;;;;;;;;5056904;28;20111;-73
2022/04/28 03:00:28;;;;;;;9.45;7.30;;;;;;;;;;5054783;28;20349;-73
2022/04/28 03:02:54;;;;;;;12.15;5.15;;;;;;;;;;5053887;28;20029;-71
2022/04/28 03:05:20;;;;;;;8.35;6.00;;;;;;;;;;5050081;28;20033;-73
2022/04/28 03:13:11;;;;;;;10.57;5.60;;;;;;;;;;5054838;28;20075;-73
2022/04/28 03:15:39;;;;;;;12.45;5.47;;;;;;;;;;5054683;28;20056;-75
2022/04/28 03:18:05;;;;;;;8.60;5.10;;;;;;;;;;5061496;28;20036;-74
2022/04/28 03:20:31;;;;;;;11.55;5.82;;;;;;;;;;5063488;28;20033;-71
2022/04/28 03:22:57;;;;;;;7.10;5.38;;;;;;;;;;5058307;28;20384;-73
2022/04/28 03:25:23;;;;;;;7.88;4.63;;;;;;;;;;5048008;28;20072;-71
2022/04/28 03:27:49;;;;;;;10.07;6.28;;;;;;;;;;5050866;28;20132;-71
2022/04/28 03:30:15;;;;;;;8.52;5.45;;;;;;;;;;5055326;28;20025;-73
2022/04/28 03:32:42;;;;;;;8.02;5.30;;;;;;;;;;5065376;28;20055;-71
2022/04/28 03:35:10;;;;;;;9.48;6.13;;;;;;;;;;5058432;28;20477;-70
2022/04/28 03:37:37;;;;;;;11.68;5.88;;;;;;;;;;5050348;28;20028;-71
2022/04/28 03:40:03;;;;;;;8.77;5.60;;;;;;;;;;5053946;28;20135;-71
2022/04/28 03:42:29;;;;;;;10.05;5.63;;;;;;;;;;5057760;28;20096;-72
2022/04/28 03:44:55;;;;;;;11.85;5.97;;;;;;;;;;5055401;28;20432;-74
2022/04/28 03:47:21;;;;;;;12.55;5.30;;;;;;;;;;5063044;28;20033;-72
2022/04/28 03:49:47;;;;;;;7.78;5.32;;;;;;;;;;5056024;28;20021;-73
2022/04/28 03:52:13;;;;;;;7.80;5.95;;;;;;;;;;5055505;28;20029;-70
2022/04/28 03:54:40;;;;;;;7.40;5.00;;;;;;;;;;5058129;28;20055;-72
2022/04/28 03:57:06;;;;;;;9.20;5.93;;;;;;;;;;5048235;28;20382;-73
2022/04/28 03:59:32;;;;;;;13.07;5.97;;;;;;;;;;5047965;28;20056;-73
2022/04/28 04:01:59;;;;;;;9.10;5.78;;;;;;;;;;5061364;28;20155;-72
2022/04/28 04:04:25;;;;;;;7.85;5.22;;;;;;;;;;5065583;28;20031;-73
2022/04/28 04:06:53;;;;;;;8.93;5.30;;;;;;;;;;5052407;28;20336;-72
2022/04/28 04:09:19;;;;;;;9.02;4.95;;;;;;;;;;5047723;28;20025;-72
2022/04/28 04:11:45;;;;;;;11.68;5.25;;;;;;;;;;5054742;28;20032;-71
2022/04/28 04:14:12;;;;;;;9.07;4.75;;;;;;;;;;5057118;28;20056;-73
2022/04/28 04:16:38;;;;;;;8.55;4.90;;;;;;;;;;5048491;28;20044;-71
2022/04/28 04:19:04;;;;;;;10.02;5.22;;;;;;;;;;5054364;28;20084;-74
2022/04/28 04:21:30;;;;;;;9.68;4.95;;;;;;;;;;5055923;28;20043;-73
2022/04/28 04:23:57;;;;;;;9.73;5.55;;;;;;;;;;5045302;28;20390;-73
2022/04/28 04:26:23;;;;;;;7.28;5.10;;;;;;;;;;5040088;28;20017;-73
2022/04/28 04:28:49;;;;;;;8.52;5.43;;;;;;;;;;5058714;28;20415;-72
2022/04/28 04:34:00;;;;;;;7.43;5.53;;;;;;;;;;5057761;28;20147;-72
2022/04/28 04:36:26;;;;;;;8.95;5.78;;;;;;;;;;5062338;28;20111;-72
2022/04/28 04:38:52;;;;;;;10.85;5.43;;;;;;;;;;5062633;28;20424;-71
2022/04/28 04:41:18;;;;;;;7.00;5.50;;;;;;;;;;5052516;28;20036;-72
2022/04/28 04:43:44;;;;;;;8.38;5.45;;;;;;;;;;5049141;28;20028;-73
2022/04/28 04:46:10;;;;;;;8.15;5.75;;;;;;;;;;5054042;28;20036;-73
2022/04/28 04:48:36;;;;;;;11.70;6.18;;;;;;;;;;5044587;28;20033;-72
2022/04/28 04:51:02;;;;;;;9.63;6.00;;;;;;;;;;5055910;28;20025;-71
2022/04/28 04:53:29;;;;;;;8.65;5.68;;;;;;;;;;5050370;28;20096;-74
2022/04/28 04:55:55;;;;;;;13.85;6.28;;;;;;;;;;5059322;28;20482;-73
2022/04/28 04:58:21;;;;;;;12.10;7.18;;;;;;;;;;5057562;28;20033;-73
2022/04/28 05:00:48;;;;;;;11.80;6.63;;;;;;;;;;5057109;28;20103;-73
2022/04/28 05:03:14;;;;;;;17.92;7.97;;;;;;;;;;5049282;28;20028;-74
2022/04/28 05:05:42;;;;;;;11.98;6.47;;;;;;;;;;5053743;28;20033;-73
2022/04/28 05:08:08;;;;;;;12.13;7.88;;;;;;;;;;5059431;28;20060;-74
2022/04/28 05:10:34;;;;;;;12.40;7.35;;;;;;;;;;5055444;28;20518;-73
2022/04/28 05:13:00;;;;;;;12.15;7.50;;;;;;;;;;5051555;28;20064;-73
2022/04/28 05:15:26;;;;;;;12.07;7.57;;;;;;;;;;5049716;28;20044;-73
2022/04/28 05:17:52;;;;;;;13.10;7.28;;;;;;;;;;5065426;28;20029;-71
2022/04/28 05:20:18;;;;;;;11.52;6.97;;;;;;;;;;5050884;28;20037;-73
2022/04/28 05:22:44;;;;;;;11.75;7.07;;;;;;;;;;5047873;28;20075;-71
2022/04/28 05:25:11;;;;;;;13.10;7.03;;;;;;;;;;5044839;28;20032;-74
2022/04/28 05:27:37;;;;;;;9.75;6.25;;;;;;;;;;5053325;28;20116;-73
2022/04/28 05:30:03;;;;;;;8.52;6.35;;;;;;;;;;5050446;28;20048;-71
2022/04/28 05:32:29;;;;;;;8.90;5.90;;;;;;;;;;5043618;28;20033;-73
2022/04/28 05:34:55;;;;;;;8.82;5.60;;;;;;;;;;5047026;28;20585;-73
2022/04/28 05:37:21;;;;;;;8.55;5.38;;;;;;;;;;5057795;28;20044;-73
2022/04/28 05:39:48;;;;;;;8.15;5.68;;;;;;;;;;5047974;28;20067;-73
2022/04/28 05:42:14;;;;;;;9.98;5.88;;;;;;;;;;5055425;28;20028;-74
2022/04/28 05:47:25;;;;;;;9.95;5.25;;;;;;;;;;5045431;28;20541;-70
2022/04/28 05:49:51;;;;;;;9.23;4.95;;;;;;;;;;5054461;28;20126;-72
2022/04/28 05:52:18;;;;;;;6.95;5.20;;;;;;;;;;5045245;28;20037;-72
2022/04/28 05:54:44;;;;;;;12.45;5.80;;;;;;;;;;5041999;28;20244;-73
2022/04/28 05:57:11;;;;;;;12.35;5.47;;;;;;;;;;5064769;28;20613;-72
2022/04/28 05:59:37;;;;;;;6.78;5.68;;;;;;;;;;5047360;28;20069;-72
2022/04/28 06:02:03;;;;;;;9.15;5.90;;;;;;;;;;5049490;28;20030;-72
2022/04/28 06:04:30;;;;;;;9.38;5.75;;;;;;;;;;5051287;28;20039;-72
2022/04/28 06:06:56;;;;;;;12.07;5.35;;;;;;;;;;5048319;28;20310;-73
2022/04/28 06:09:22;;;;;;;12.30;5.28;;;;;;;;;;5049705;28;20025;-73
2022/04/28 06:11:48;;;;;;;12.05;5.38;;;;;;;;;;5053145;28;20051;-71
2022/04/28 06:14:14;;;;;;;8.23;5.45;;;;;;;;;;5055199;28;20040;-71
2022/04/28 06:16:41;;;;;;;10.35;5.85;;;;;;;;;;5052414;28;20043;-72
2022/04/28 06:19:07;;;;;;;8.18;5.50;;;;;;;;;;5053151;28;20386;-73
2022/04/28 06:21:33;;;;;;;8.52;5.03;;;;;;;;;;5055049;28;20101;-71
2022/04/28 06:23:59;;;;;;;12.65;5.88;;;;;;;;;;5050577;28;20448;-72
2022/04/28 06:26:25;;;;;;;9.95;6.03;;;;;;;;;;5045551;28;20052;-73
2022/04/28 06:28:51;;;;;;;10.18;5.97;;;;;;;;;;5048810;28;20532;-73
2022/04/28 06:31:17;;;;;;;8.65;4.95;;;;;;;;;;5067466;28;20024;-72
2022/04/28 06:33:43;;;;;;;9.43;5.72;;;;;;;;;;5048724;28;20060;-70
2022/04/28 06:36:09;;;;;;;13.15;6.10;;;;;;;;;;5048531;28;20025;-71
2022/04/28 06:38:35;;;;;;;8.82;5.70;;;;;;;;;;5049763;28;20048;-71
2022/04/28 06:41:02;;;;;;;8.40;5.28;;;;;;;;;;5054684;28;20045;-73
2022/04/28 06:43:28;;;;;;;9.07;5.55;;;;;;;;;;5050001;28;20048;-73
2022/04/28 06:46:12;;;;;;;6.13;4.75;;;;;;;;;;5049425;28;20139;-73
2022/04/28 06:48:38;;;;;;;12.85;5.18;;;;;;;;;;5049051;28;20095;-72
2022/04/28 06:51:04;;;;;;;9.45;5.28;;;;;;;;;;5043402;28;20420;-71
2022/04/28 06:53:31;;;;;;;7.15;5.25;;;;;;;;;;5047975;28;20432;-70
2022/04/28 06:55:57;;;;;;;8.35;5.45;;;;;;;;;;5044683;28;20024;-72
2022/04/28 06:58:23;;;;;;;11.88;5.43;;;;;;;;;;5047761;28;20367;-74
2022/04/28 07:00:50;;;;;;;8.05;5.70;;;;;;;;;;5044682;28;20503;-71
2022/04/28 07:03:16;;;;;;;9.25;5.65;;;;;;;;;;5054665;28;20032;-73
2022/04/28 07:05:42;;;;;;;8.82;5.40;;;;;;;;;;5041139;28;20108;-73
2022/04/28 07:08:08;;;;;;;7.45;5.50;;;;;;;;;;5059514;28;20021;-71
2022/04/28 07:10:37;;;;;;;10.32;5.97;;;;;;;;;;5058719;28;20403;-74
2022/04/28 07:13:03;;;;;;;7.45;5.13;;;;;;;;;;5061585;28;20033;-73
2022/04/28 07:15:29;;;;;;;8.25;5.43;;;;;;;;;;5063161;28;20045;-72
2022/04/28 07:17:56;;;;;;;10.23;5.63;;;;;;;;;;5060530;28;20028;-71
2022/04/28 07:20:24;;;;;;;9.10;5.95;;;;;;;;;;5060024;28;20092;-73
2022/04/28 07:22:51;;;;;;;10.57;5.88;;;;;;;;;;5061080;28;20083;-72
2022/04/28 07:25:17;;;;;;;9.75;5.57;;;;;;;;;;5063758;28;20478;-72
2022/04/28 07:27:44;;;;;;;8.60;5.93;;;;;;;;;;5052810;28;20036;-73
2022/04/28 07:30:11;;;;;;;8.38;5.65;;;;;;;;;;5063732;28;20040;-74
2022/04/28 07:32:37;;;;;;;8.40;5.60;;;;;;;;;;5058615;28;20140;-72
2022/04/28 07:35:03;;;;;;;10.73;6.28;;;;;;;;;;5060908;28;20115;-74
2022/04/28 07:37:32;;;;;;;9.90;6.07;;;;;;;;;;5052047;28;20081;-74
2022/04/28 07:39:59;;;;;;;7.00;5.85;;;;;;;;;;5055636;28;20525;-75
2022/04/28 07:42:25;;;;;;;9.30;6.05;;;;;;;;;;5057825;28;20032;-73
2022/04/28 07:44:51;;;;;;;13.93;6.78;;;;;;;;;;5059738;28;20036;-76
2022/04/28 07:47:17;;;;;;;12.23;6.20;;;;;;;;;;5061828;28;20067;-75
2022/04/28 07:49:43;;;;;;;11.70;5.65;;;;;;;;;;5060676;28;20336;-74
2022/04/28 07:52:09;;;;;;;11.93;5.90;;;;;;;;;;5060685;28;20032;-74
2022/04/28 07:54:35;;;;;;;8.65;5.65;;;;;;;;;;5055803;28;20172;-74
2022/04/28 07:57:01;;;;;;;12.20;5.85;;;;;;;;;;5061305;28;20036;-75
2022/04/28 07:59:31;;;;;;;12.00;5.95;;;;;;;;;;5056594;28;20053;-77
2022/04/28 08:02:00;;;;;;;8.77;6.25;;;;;;;;;;5053006;28;20511;-74
2022/04/28 08:04:26;;;;;;;11.52;5.57;;;;;;;;;;5054017;28;20647;-76
2022/04/28 08:06:52;;;;;;;10.85;5.72;;;;;;;;;;5055284;28;20036;-73
2022/04/28 08:09:19;;;;;;;12.32;5.40;;;;;;;;;;5059130;28;20067;-73
2022/04/28 08:11:45;;;;;;;10.85;5.88;;;;;;;;;;5056739;28;20040;-75
2022/04/28 08:14:12;;;;;;;9.18;4.85;;;;;;;;;;5054016;28;20511;-75
2022/04/28 08:16:38;;;;;;;9.57;5.47;;;;;;;;;;5060878;28;20050;-76
2022/04/28 08:19:05;;;;;;;13.98;6.47;;;;;;;;;;5059710;28;20040;-76
2022/04/28 08:21:31;;;;;;;9.38;5.82;;;;;;;;;;5069106;28;20033;-76
2022/04/28 08:23:57;;;;;;;8.98;5.30;;;;;;;;;;5057933;28;20144;-75
2022/04/28 08:26:24;;;;;;;10.63;6.38;;;;;;;;;;5051878;28;20127;-76
2022/04/28 08:28:50;;;;;;;10.90;5.63;;;;;;;;;;5059100;28;20151;-78
2022/04/28 08:31:16;;;;;;;7.25;5.18;;;;;;;;;;5050993;28;20536;-75
2022/04/28 08:33:42;;;;;;;7.93;5.18;;;;;;;;;;5055338;28;20589;-75
2022/04/28 08:36:08;;;;;;;8.48;5.18;;;;;;;;;;5050485;28;20319;-74
2022/04/28 08:38:34;;;;;;;10.65;4.97;;;;;;;;;;5051962;28;20082;-74
2022/04/28 08:41:01;;;;;;;10.13;5.60;;;;;;;;;;5061077;28;20032;-76
2022/04/28 08:43:29;;;;;;;10.18;6.40;;;;;;;;;;5062517;28;20070;-77
2022/04/28 08:48:46;;;;;;;9.27;4.97;;;;;;;;;;5058460;28;20043;-74
2022/04/28 08:51:12;;;;;;;12.50;5.70;;;;;;;;;;5055113;28;20167;-74
2022/04/28 08:53:38;;;;;;;13.07;6.13;;;;;;;;;;5052813;28;20039;-74
2022/04/28 08:56:05;;;;;;;11.15;6.28;;;;;;;;;;5057998;28;20024;-76
2022/04/28 08:58:31;;;;;;;12.02;5.85;;;;;;;;;;5061659;28;20120;-74
2022/04/28 09:00:57;;;;;;;10.85;6.15;;;;;;;;;;5057253;28;20044;-77
2022/04/28 09:03:42;;;;;;;8.60;5.18;;;;;;;;;;5061817;28;20025;-73
2022/04/28 09:06:18;;;;;;;11.23;5.80;;;;;;;;;;5048573;28;20040;-76
2022/04/28 09:08:45;;;;;;;12.43;5.82;;;;;;;;;;5054493;28;20402;-75
2022/04/28 09:11:19;;;;;;;11.43;6.03;;;;;;;;;;5061447;28;20024;-75
2022/04/28 09:16:43;;;;;;;12.27;5.90;;;;;;;;;;5060659;28;20047;-75
2022/04/28 09:19:10;;;;;;;13.75;6.15;;;;;;;;;;5064177;28;20096;-74
2022/04/28 09:21:37;;;;;;;13.52;5.90;;;;;;;;;;5059411;28;20098;-74
2022/04/28 09:24:04;;;;;;;15.38;6.32;;;;;;;;;;5059944;28;20025;-77
2022/04/28 09:26:32;;;;;;;9.45;5.68;;;;;;;;;;5060886;28;20039;-76
2022/04/28 09:29:02;;;;;;;13.13;6.32;;;;;;;;;;5046870;28;20028;-77
2022/04/28 09:31:29;;;;;;;17.63;7.55;;;;;;;;;;5058201;28;20125;-75
2022/04/28 09:33:55;;;;;;;7.80;5.68;;;;;;;;;;5053645;28;20502;-75
2022/04/28 09:36:21;;;;;;;12.90;6.85;;;;;;;;;;5060873;28;20040;-76
2022/04/28 09:38:53;;;;;;;9.73;5.72;;;;;;;;;;5054044;28;20040;-74
2022/04/28 09:44:05;;;;;;;12.10;5.20;;;;;;;;;;5056982;28;20117;-74
2022/04/28 09:46:31;;;;;;;9.50;5.68;;;;;;;;;;5063485;28;20054;-75
2022/04/28 09:48:58;;;;;;;11.07;6.45;;;;;;;;;;5061128;28;20045;-74
2022/04/28 09:51:25;;;;;;;12.73;5.88;;;;;;;;;;5058515;28;20360;-75
2022/04/28 09:53:52;;;;;;;14.57;6.65;;;;;;;;;;5068097;28;20077;-76
2022/04/28 09:56:21;;;;;;;14.57;6.28;;;;;;;;;;5055963;28;20029;-75
2022/04/28 09:58:48;;;;;;;12.48;5.93;;;;;;;;;;5055605;28;20444;-75
2022/04/28 10:01:15;;;;;;;10.82;5.55;;;;;;;;;;5059299;28;20033;-73
2022/04/28 10:03:42;;;;;;;7.88;5.30;;;;;;;;;;5059028;28;20106;-72
2022/04/28 10:06:08;;;;;;;13.07;5.90;;;;;;;;;;5060257;28;20029;-74
2022/04/28 10:08:35;;;;;;;13.45;5.80;;;;;;;;;;5055918;28;20028;-73
2022/04/28 10:11:04;;;;;;;13.38;5.57;;;;;;;;;;5056329;28;20033;-73
2022/04/28 10:13:31;;;;;;;12.40;5.15;;;;;;;;;;5055576;28;20049;-75
2022/04/28 10:16:07;;;;;;;9.02;5.18;;;;;;;;;;5060126;28;20113;-74
2022/04/28 10:18:36;;;;;;;8.98;6.00;;;;;;;;;;5063331;28;20064;-74
2022/04/28 10:21:03;;;;;;;8.65;5.45;;;;;;;;;;5056954;28;20149;-74
2022/04/28 10:32:38;;;;;;;14.30;5.68;;;;;;;;;;5060540;28;20063;-72
2022/04/28 10:35:06;;;;;;;10.67;5.27;;;;;;;;;;5062209;28;20088;-75
2022/04/28 10:37:36;;;;;;;8.45;4.75;;;;;;;;;;5062888;28;20301;-73
2022/04/28 10:40:04;;;;;;;11.95;5.88;;;;;;;;;;5062455;28;20040;-72
2022/04/28 10:42:30;;;;;;;6.93;4.72;;;;;;;;;;5057631;28;20404;-76
2022/04/28 10:44:58;;;;;;;11.55;6.03;;;;;;;;;;5054642;28;20035;-74
2022/04/28 10:47:30;;;;;;;8.50;5.78;;;;;;;;;;5055920;28;20028;-74
2022/04/28 10:49:56;;;;;;;13.05;5.63;;;;;;;;;;5058899;28;20472;-73
2022/04/28 10:52:29;;;;;;;9.70;5.30;;;;;;;;;;5059578;28;20535;-74
2022/04/28 10:54:59;;;;;;;13.45;5.32;;;;;;;;;;5063816;28;20567;-74
2022/04/28 10:57:29;;;;;;;7.80;5.15;;;;;;;;;;5062639;28;20056;-74
2022/04/28 10:59:56;;;;;;;14.55;6.20;;;;;;;;;;5063157;28;20107;-75
2022/04/28 11:02:23;;;;;;;11.77;6.43;;;;;;;;;;5063289;28;20051;-74
2022/04/28 11:04:55;;;;;;;13.43;5.28;;;;;;;;;;5057588;28;20462;-74
2022/04/28 11:07:27;;;;;;;9.70;6.25;;;;;;;;;;5055965;28;20040;-73
2022/04/28 11:09:57;;;;;;;8.77;5.38;;;;;;;;;;5062772;28;20016;-74
2022/04/28 11:12:25;;;;;;;8.35;5.30;;;;;;;;;;5062494;28;20488;-72
2022/04/28 11:15:05;;;;;;;8.45;5.45;;;;;;;;;;5064419;28;20071;-75
2022/04/28 11:17:32;;;;;;;9.23;5.75;;;;;;;;;;5062906;28;20029;-73
2022/04/28 11:20:04;;;;;;;14.77;5.85;;;;;;;;;;5067706;28;20028;-73
2022/04/28 11:22:30;;;;;;;9.63;6.10;;;;;;;;;;5065477;28;20449;-72
2022/04/28 11:24:59;;;;;;;12.50;5.88;;;;;;;;;;5061168;28;20017;-74
2022/04/28 11:27:27;;;;;;;7.78;5.78;;;;;;;;;;5063477;28;20208;-74
2022/04/28 11:29:58;;;;;;;8.98;5.22;;;;;;;;;;5065016;28;20020;-72
2022/04/28 11:32:24;;;;;;;10.98;5.75;;;;;;;;;;5070404;28;20116;-73
2022/04/28 11:34:52;;;;;;;7.88;6.00;;;;;;;;;;5065163;28;20118;-74
2022/04/28 11:37:19;;;;;;;12.15;5.95;;;;;;;;;;5065029;28;20095;-72
2022/04/28 11:39:46;;;;;;;12.52;7.45;;;;;;;;;;5062280;28;20032;-74
2022/04/28 11:42:29;;;;;;;9.77;5.88;;;;;;;;;;5063294;28;20028;-72
2022/04/28 11:44:59;;;;;;;8.55;5.90;;;;;;;;;;5061527;28;20039;-76
2022/04/28 11:47:26;;;;;;;8.70;5.78;;;;;;;;;;5074209;28;20035;-74
2022/04/28 11:49:58;;;;;;;14.18;6.45;;;;;;;;;;5064360;28;20020;-74
2022/04/28 11:52:26;;;;;;;13.68;7.22;;;;;;;;;;5061901;28;20032;-75
2022/04/28 11:54:52;;;;;;;14.05;7.25;;;;;;;;;;5063655;28;20068;-75
2022/04/28 11:57:22;;;;;;;14.40;6.70;;;;;;;;;;5065917;28;20048;-75
2022/04/28 11:59:49;;;;;;;15.55;8.00;;;;;;;;;;5064406;28;20059;-75
2022/04/28 12:02:24;;;;;;;13.50;6.35;;;;;;;;;;5068130;28;20050;-74
2022/04/28 12:04:51;;;;;;;9.77;6.88;;;;;;;;;;5059968;28;21044;-74
2022/04/28 12:07:20;;;;;;;11.55;7.40;;;;;;;;;;5055404;28;20033;-76
2022/04/28 12:15:17;;;;;;;10.02;6.78;;;;;;;;;;5057675;28;20723;-74
2022/04/28 12:20:54;;;;;;;15.73;7.38;;;;;;;;;;5061480;28;20074;-75
2022/04/28 12:23:28;;;;;;;12.25;7.32;;;;;;;;;;5062317;28;20028;-74
2022/04/28 12:26:02;;;;;;;8.30;6.45;;;;;;;;;;5063327;28;20120;-74
2022/04/28 12:28:32;;;;;;;13.85;7.88;;;;;;;;;;5073050;28;20140;-77
2022/04/28 12:30:59;;;;;;;12.07;6.72;;;;;;;;;;5071289;28;20036;-75
2022/04/28 12:33:26;;;;;;;12.95;7.35;;;;;;;;;;5066730;28;20024;-74
2022/04/28 12:35:52;;;;;;;15.35;7.78;;;;;;;;;;5066816;28;20404;-74
2022/04/28 12:38:30;;;;;;;12.30;6.93;;;;;;;;;;5064075;28;20095;-74
2022/04/28 12:40:56;;;;;;;12.50;7.80;;;;;;;;;;5067499;28;20051;-74
2022/04/28 12:43:56;;;;;;;17.23;9.10;;;;;;;;;;5069596;28;20040;-73
2022/04/28 12:46:34;;;;;;;12.63;7.38;;;;;;;;;;5057556;28;20073;-73
2022/04/28 12:49:04;;;;;;;11.80;7.53;;;;;;;;;;5063630;28;20124;-72
2022/04/28 12:51:31;;;;;;;15.48;8.05;;;;;;;;;;5082693;28;20028;-73
2022/04/28 12:54:15;;;;;;;11.50;7.55;;;;;;;;;;5064874;28;20101;-73
2022/04/28 12:56:43;;;;;;;12.90;7.13;;;;;;;;;;5064869;28;20029;-72
2022/04/28 12:59:16;;;;;;;11.52;6.93;;;;;;;;;;5065377;28;20086;-74
2022/04/28 13:01:46;;;;;;;13.60;7.15;;;;;;;;;;5071243;28;20530;-74
2022/04/28 13:04:22;;;;;;;11.63;7.53;;;;;;;;;;5061750;28;20390;-74
2022/04/28 13:06:50;;;;;;;12.35;6.95;;;;;;;;;;5058724;28;20029;-73
2022/04/28 13:09:16;;;;;;;12.18;8.02;;;;;;;;;;5061847;28;20007;-76
2022/04/28 13:11:43;;;;;;;18.33;7.82;;;;;;;;;;5046788;28;20106;-74
2022/04/28 13:14:14;;;;;;;12.77;7.20;;;;;;;;;;5064008;28;20045;-73
2022/04/28 13:16:40;;;;;;;16.90;7.75;;;;;;;;;;5058064;28;20033;-73
2022/04/28 13:19:07;;;;;;;14.43;7.70;;;;;;;;;;5062801;28;20384;-71
2022/04/28 13:21:34;;;;;;;12.88;7.38;;;;;;;;;;5062929;28;20099;-75
2022/04/28 13:24:03;;;;;;;14.20;7.13;;;;;;;;;;5062733;28;20050;-73
2022/04/28 13:26:30;;;;;;;14.55;7.90;;;;;;;;;;5053294;28;20025;-73
2022/04/28 13:28:57;;;;;;;10.05;6.82;;;;;;;;;;5054669;28;20086;-74
2022/04/28 13:31:24;;;;;;;16.25;8.60;;;;;;;;;;5061398;28;20451;-74
2022/04/28 13:33:51;;;;;;;14.48;8.35;;;;;;;;;;5046213;28;20074;-73
2022/04/28 13:36:17;;;;;;;12.25;8.07;;;;;;;;;;5048928;28;20805;-72
2022/04/28 13:38:44;;;;;;;14.88;8.77;;;;;;;;;;5040570;28;20037;-72
2022/04/28 13:41:11;;;;;;;15.73;7.60;;;;;;;;;;5055047;28;20453;-73
2022/04/28 13:43:38;;;;;;;14.27;8.30;;;;;;;;;;5036292;28;20066;-73
2022/04/28 13:46:04;;;;;;;10.30;7.63;;;;;;;;;;5032436;28;20025;-73
2022/04/28 13:48:31;;;;;;;15.35;7.75;;;;;;;;;;5036931;28;20036;-73
2022/04/28 13:50:57;;;;;;;15.73;7.78;;;;;;;;;;5035907;28;20082;-72
2022/04/28 13:53:30;;;;;;;15.02;7.63;;;;;;;;;;5037328;28;20040;-73
2022/04/28 13:55:57;;;;;;;14.00;7.75;;;;;;;;;;5038591;28;21463;-73
2022/04/28 13:58:24;;;;;;;13.65;7.20;;;;;;;;;;5040251;28;20028;-72
2022/04/28 14:00:51;;;;;;;11.88;7.78;;;;;;;;;;5055148;28;20104;-74
2022/04/28 14:03:21;;;;;;;13.57;8.43;;;;;;;;;;5049364;28;20170;-74
2022/04/28 14:05:51;;;;;;;12.90;7.70;;;;;;;;;;5048668;28;20067;-76
2022/04/28 14:08:18;;;;;;;16.35;7.70;;;;;;;;;;5045586;28;20056;-76
2022/04/28 14:10:45;;;;;;;15.55;8.02;;;;;;;;;;5041395;28;20020;-78
2022/04/28 14:13:12;;;;;;;17.33;7.50;;;;;;;;;;5044325;28;20398;-76
2022/04/28 14:15:38;;;;;;;14.50;7.90;;;;;;;;;;5040229;28;20040;-78
2022/04/28 14:18:05;;;;;;;12.85;7.65;;;;;;;;;;5043202;28;20029;-81
2022/04/28 14:20:31;;;;;;;14.43;8.05;;;;;;;;;;5049418;28;20086;-79
2022/04/28 14:22:58;;;;;;;13.05;8.25;;;;;;;;;;5044381;28;20062;-76
2022/04/28 14:25:24;;;;;;;12.88;6.32;;;;;;;;;;5047424;28;20033;-75
2022/04/28 14:27:50;;;;;;;12.55;7.82;;;;;;;;;;5045285;28;20387;-74
2022/04/28 14:30:16;;;;;;;12.77;7.93;;;;;;;;;;5047785;28;20071;-76
2022/04/28 14:32:42;;;;;;;12.20;8.70;;;;;;;;;;5047625;28;20040;-80
2022/04/28 14:35:09;;;;;;;12.82;7.20;;;;;;;;;;5049067;28;20059;-76
2022/04/28 14:37:37;;;;;;;12.20;8.32;;;;;;;;;;5049867;28;20085;-76
2022/04/28 14:40:07;;;;;;;12.68;7.22;;;;;;;;;;5048405;28;20392;-75
2022/04/28 14:42:40;;;;;;;13.25;7.35;;;;;;;;;;5060065;28;20025;-73
2022/04/28 14:45:07;;;;;;;9.30;6.68;;;;;;;;;;5067569;28;20024;-75
2022/04/28 14:47:34;;;;;;;8.55;6.88;;;;;;;;;;5056202;28;20032;-77
2022/04/28 14:52:45;;;;;;;12.65;7.47;;;;;;;;;;5058184;28;20044;-75
2022/04/28 14:55:11;;;;;;;12.20;7.68;;;;;;;;;;5060082;28;20497;-75
2022/04/28 14:57:38;;;;;;;10.40;6.80;;;;;;;;;;5059168;28;20040;-75
2022/04/28 15:00:06;;;;;;;21.75;7.50;;;;;;;;;;5060842;28;20058;-76
2022/04/28 15:02:32;;;;;;;13.45;7.30;;;;;;;;;;5053965;28;20033;-76
2022/04/28 15:04:59;;;;;;;11.90;7.28;;;;;;;;;;5057546;28;20118;-76
2022/04/28 15:07:25;;;;;;;12.20;7.32;;;;;;;;;;5053992;28;20033;-76
2022/04/28 15:09:51;;;;;;;10.95;7.25;;;;;;;;;;5056963;28;20061;-78
2022/04/28 15:12:18;;;;;;;14.05;7.60;;;;;;;;;;5052664;28;20581;-77
2022/04/28 15:14:44;;;;;;;12.77;7.32;;;;;;;;;;5052235;28;20527;-78
2022/04/28 15:17:11;;;;;;;14.05;7.60;;;;;;;;;;5059437;28;20044;-76
2022/04/28 15:19:37;;;;;;;12.20;7.22;;;;;;;;;;5054958;28;20036;-74
2022/04/28 15:22:04;;;;;;;16.55;7.50;;;;;;;;;;5056663;28;20038;-77
2022/04/28 15:24:31;;;;;;;9.98;7.32;;;;;;;;;;5049886;28;20023;-78